Time;durP1;ratioP1;P1;durP2;ratioP2;P2;SDS_P1;SDS_P2;PMS_P1;PMS_P2;Temp;Humidity;BMP_temperature;BMP_pressure;BME280_temperature;BME280_humidity;BME280_pressure;Samples;Min_cycle;Max_cycle;Signal;HPM_P1;HPM_P2
2022/09/08 00:02:05;;;;;;;3.80;1.30;;;23.20;66.70;;;;;;6265834;28;20049;-81
2022/09/08 00:05:07;;;;;;;5.75;1.42;;;23.20;66.90;;;;;;6261999;28;20039;-81
2022/09/08 00:08:09;;;;;;;5.30;1.40;;;23.30;67.20;;;;;;6268910;28;20036;-81
2022/09/08 00:11:12;;;;;;;2.45;1.73;;;23.30;67.20;;;;;;6271104;28;20064;-82
2022/09/08 00:14:13;;;;;;;2.97;1.48;;;23.20;67.20;;;;;;6279372;28;20041;-82
2022/09/08 00:17:15;;;;;;;3.70;1.10;;;23.20;67.10;;;;;;6272766;28;20105;-82
2022/09/08 00:20:16;;;;;;;3.13;1.65;;;23.20;67.40;;;;;;6259120;28;20036;-82
2022/09/08 00:23:17;;;;;;;7.10;1.33;;;23.20;67.50;;;;;;6263656;28;20048;-82
2022/09/08 00:26:19;;;;;;;1.52;1.20;;;23.30;67.70;;;;;;6251754;28;20084;-82
2022/09/08 00:29:20;;;;;;;3.67;1.20;;;23.30;67.70;;;;;;6268798;28;20047;-81
2022/09/08 00:32:21;;;;;;;3.45;1.40;;;23.30;67.40;;;;;;6286078;28;20037;-82
2022/09/08 00:35:22;;;;;;;4.45;1.40;;;23.30;67.20;;;;;;6254489;28;20470;-81
2022/09/08 00:38:24;;;;;;;4.28;1.50;;;23.40;67.20;;;;;;6257069;28;20114;-83
2022/09/08 00:41:26;;;;;;;3.80;1.40;;;23.40;67.30;;;;;;6256235;28;20512;-81
2022/09/08 00:44:49;;;;;;;2.70;1.27;;;23.40;67.30;;;;;;6284301;28;20041;-83
2022/09/08 00:48:05;;;;;;;3.45;1.33;;;23.40;67.30;;;;;;6260797;28;20037;-81
2022/09/08 00:51:06;;;;;;;4.50;1.42;;;23.40;67.30;;;;;;6244514;28;20569;-81
2022/09/08 00:54:11;;;;;;;2.72;1.60;;;23.40;67.10;;;;;;6257641;28;20037;-81
2022/09/08 00:57:13;;;;;;;4.40;1.55;;;23.40;67.10;;;;;;6250704;28;20040;-81
2022/09/08 01:00:16;;;;;;;3.55;1.75;;;23.40;67.40;;;;;;6259112;28;20476;-82
2022/09/08 01:03:17;;;;;;;2.53;1.88;;;23.50;67.50;;;;;;6261374;28;20114;-82
2022/09/08 01:12:43;;;;;;;8.00;1.80;;;23.50;67.50;;;;;;6274631;28;20029;-82
2022/09/08 01:13:46;;;;;;;5.93;1.55;;;23.50;67.20;;;;;;6275014;28;20037;-82
2022/09/08 01:16:48;;;;;;;4.43;1.42;;;23.50;67.10;;;;;;6260717;28;20086;-82
2022/09/08 01:19:50;;;;;;;11.15;1.90;;;23.60;67.20;;;;;;6246921;28;20044;-82
2022/09/08 01:23:27;;;;;;;3.63;1.45;;;23.60;67.20;;;;;;6254653;28;20077;-82
2022/09/08 01:26:50;;;;;;;3.67;1.40;;;23.60;67.20;;;;;;6260619;28;20112;-82
2022/09/08 01:30:04;;;;;;;1.65;1.30;;;23.70;67.10;;;;;;6265500;28;20037;-81
2022/09/08 01:33:07;;;;;;;3.53;1.50;;;23.70;67.00;;;;;;6257125;28;20042;-81
2022/09/08 01:36:10;;;;;;;3.35;1.45;;;23.70;66.90;;;;;;6264482;28;20043;-81
2022/09/08 01:39:11;;;;;;;4.88;1.30;;;23.70;66.70;;;;;;6277808;28;20043;-81
2022/09/08 01:42:12;;;;;;;2.78;1.17;;;23.70;66.60;;;;;;6262044;28;20486;-81
2022/09/08 01:45:14;;;;;;;3.65;1.50;;;23.60;66.40;;;;;;6257898;28;20037;-81
2022/09/08 01:48:15;;;;;;;1.52;1.30;;;23.60;66.20;;;;;;6256103;28;20404;-81
2022/09/08 01:51:16;;;;;;;4.15;1.50;;;23.60;66.20;;;;;;6257451;28;20041;-81
2022/09/08 01:54:17;;;;;;;3.97;1.33;;;23.60;65.90;;;;;;6263876;28;20056;-81
2022/09/08 01:57:18;;;;;;;3.08;1.45;;;23.60;65.70;;;;;;6248642;28;20037;-81
2022/09/08 02:00:20;;;;;;;8.40;2.00;;;23.60;65.50;;;;;;6256789;28;20139;-81
2022/09/08 02:03:20;;;;;;;4.13;1.35;;;23.60;65.30;;;;;;6254883;28;20041;-82
2022/09/08 02:06:21;;;;;;;2.28;1.30;;;23.60;65.30;;;;;;6248003;28;20055;-82
2022/09/08 02:09:22;;;;;;;2.25;1.23;;;23.60;65.20;;;;;;6248039;28;20124;-81
2022/09/08 02:12:23;;;;;;;2.63;1.00;;;23.60;64.80;;;;;;6260040;28;20053;-81
2022/09/08 02:15:24;;;;;;;1.10;0.90;;;23.60;64.70;;;;;;6245370;28;20458;-82
2022/09/08 02:18:28;;;;;;;4.45;1.00;;;23.50;64.40;;;;;;6260863;28;20515;-81
2022/09/08 02:21:29;;;;;;;1.38;0.90;;;23.50;64.00;;;;;;6250191;28;20474;-81
2022/09/08 02:24:30;;;;;;;1.67;0.88;;;23.60;63.80;;;;;;6256077;28;20038;-82
2022/09/08 02:27:31;;;;;;;8.90;1.48;;;23.50;63.60;;;;;;6255451;28;20037;-81
2022/09/08 02:30:31;;;;;;;3.63;1.20;;;23.50;63.60;;;;;;6253914;28;20095;-81
2022/09/08 02:33:33;;;;;;;6.53;1.02;;;23.60;63.70;;;;;;6265614;28;20098;-81
2022/09/08 02:36:34;;;;;;;3.25;1.05;;;23.50;63.70;;;;;;6249526;28;20894;-81
2022/09/08 02:39:35;;;;;;;16.95;1.48;;;23.50;63.70;;;;;;6257164;28;20037;-81
2022/09/08 02:42:36;;;;;;;3.67;1.92;;;23.50;63.60;;;;;;6273767;28;20112;-81
2022/09/08 02:45:40;;;;;;;2.08;1.08;;;23.50;63.40;;;;;;6246482;28;20061;-81
2022/09/08 02:48:42;;;;;;;1.30;1.05;;;23.40;63.10;;;;;;6284559;28;20036;-81
2022/09/08 02:51:43;;;;;;;7.18;0.95;;;23.40;63.00;;;;;;6269493;28;20029;-81
2022/09/08 02:54:44;;;;;;;5.35;0.85;;;23.40;62.90;;;;;;6259246;28;20350;-81
2022/09/08 02:57:44;;;;;;;2.45;1.10;;;23.40;62.80;;;;;;6292637;28;20082;-81
2022/09/08 03:00:46;;;;;;;1.40;0.80;;;23.30;62.30;;;;;;6291637;28;20405;-81
2022/09/08 03:03:47;;;;;;;3.88;0.75;;;23.30;62.10;;;;;;6283771;28;20033;-81
2022/09/08 03:06:48;;;;;;;2.33;0.90;;;23.30;62.10;;;;;;6268808;28;20119;-82
2022/09/08 03:09:51;;;;;;;4.15;1.00;;;23.30;62.20;;;;;;6259863;28;20047;-80
2022/09/08 03:12:53;;;;;;;0.65;0.65;;;23.20;62.50;;;;;;6271669;28;20061;-81
2022/09/08 03:15:55;;;;;;;1.17;0.90;;;23.20;62.80;;;;;;6274801;28;20048;-81
2022/09/08 03:18:56;;;;;;;7.63;1.17;;;23.10;63.00;;;;;;6251425;28;20478;-81
2022/09/08 03:21:57;;;;;;;0.82;0.82;;;23.10;63.40;;;;;;6270001;28;20079;-81
2022/09/08 03:24:58;;;;;;;1.20;0.77;;;23.10;64.70;;;;;;6265072;28;20462;-81
2022/09/08 03:27:59;;;;;;;1.48;0.80;;;23.00;64.00;;;;;;6253713;28;20041;-81
2022/09/08 03:31:00;;;;;;;2.13;0.77;;;22.90;63.90;;;;;;6255373;28;20049;-81
2022/09/08 03:34:01;;;;;;;2.00;1.10;;;22.90;63.80;;;;;;6252154;28;20504;-81
2022/09/08 03:37:01;;;;;;;1.20;0.75;;;22.90;63.80;;;;;;6289272;28;20113;-81
2022/09/08 03:40:06;;;;;;;3.97;0.82;;;22.90;63.80;;;;;;6279037;28;20041;-81
2022/09/08 03:43:07;;;;;;;2.38;1.08;;;22.90;63.90;;;;;;6284832;28;20090;-81
2022/09/08 03:46:09;;;;;;;2.08;1.27;;;22.90;64.10;;;;;;6293154;28;20520;-81
2022/09/08 03:49:11;;;;;;;2.40;0.80;;;22.80;64.20;;;;;;6302403;28;20373;-81
2022/09/08 03:52:12;;;;;;;5.18;1.05;;;22.70;64.50;;;;;;6274241;28;20837;-81
2022/09/08 03:55:13;;;;;;;3.63;0.88;;;22.50;64.60;;;;;;6288032;28;20025;-80
2022/09/08 03:58:14;;;;;;;1.60;0.98;;;22.50;64.70;;;;;;6259380;28;20450;-81
2022/09/08 04:01:18;;;;;;;1.73;0.98;;;22.40;64.90;;;;;;6254934;28;20045;-81
2022/09/08 04:04:20;;;;;;;3.38;0.95;;;22.40;65.00;;;;;;6274583;28;20036;-82
2022/09/08 04:07:24;;;;;;;6.28;0.95;;;22.30;65.10;;;;;;6252129;28;20041;-81
2022/09/08 04:10:25;;;;;;;1.83;1.10;;;22.30;65.20;;;;;;6263498;28;20060;-81
2022/09/08 04:13:26;;;;;;;5.38;1.10;;;22.20;65.00;;;;;;6287174;28;20064;-81
2022/09/08 04:16:27;;;;;;;3.45;1.17;;;22.20;65.90;;;;;;6267899;28;20040;-81
2022/09/08 04:19:28;;;;;;;1.05;0.98;;;22.20;65.20;;;;;;6277177;28;20033;-80
2022/09/08 04:22:29;;;;;;;1.75;0.98;;;22.20;65.20;;;;;;6284820;28;20048;-81
2022/09/08 04:25:30;;;;;;;1.85;0.80;;;22.10;65.20;;;;;;6276637;28;20431;-81
2022/09/08 04:28:31;;;;;;;2.90;0.98;;;22.10;65.00;;;;;;6278001;28;20115;-81
2022/09/08 04:31:34;;;;;;;3.17;0.82;;;22.10;65.00;;;;;;6250739;28;20422;-81
2022/09/08 04:34:36;;;;;;;1.55;1.08;;;22.10;65.00;;;;;;6254102;28;20037;-81
2022/09/08 04:37:38;;;;;;;1.63;0.85;;;22.10;65.10;;;;;;6299063;28;20036;-81
2022/09/08 04:40:41;;;;;;;1.08;0.80;;;22.10;65.20;;;;;;6288057;28;20045;-81
2022/09/08 04:43:43;;;;;;;3.17;1.02;;;22.00;65.20;;;;;;6270830;28;20496;-82
2022/09/08 04:46:44;;;;;;;0.75;0.70;;;22.00;65.10;;;;;;6262971;28;20061;-80
2022/09/08 04:49:44;;;;;;;5.60;1.10;;;22.00;65.00;;;;;;6283138;28;20033;-80
2022/09/08 04:52:45;;;;;;;0.85;0.85;;;22.10;65.00;;;;;;6281838;28;20052;-81
2022/09/08 04:55:46;;;;;;;1.10;0.90;;;22.10;65.00;;;;;;6270408;28;20536;-80
2022/09/08 04:58:47;;;;;;;2.92;1.08;;;22.10;65.00;;;;;;6278519;28;20125;-81
2022/09/08 05:01:48;;;;;;;2.28;1.10;;;22.10;64.90;;;;;;6272637;28;20042;-80
2022/09/08 05:04:49;;;;;;;1.85;1.05;;;22.20;65.00;;;;;;6259141;28;20068;-80
2022/09/08 05:07:50;;;;;;;6.30;1.50;;;22.20;65.10;;;;;;6283036;28;20072;-80
2022/09/08 05:10:52;;;;;;;5.40;1.30;;;22.20;65.20;;;;;;6286554;28;20033;-80
2022/09/08 05:13:53;;;;;;;7.15;1.38;;;22.20;65.30;;;;;;6264924;28;20064;-80
2022/09/08 05:16:54;;;;;;;3.15;1.50;;;22.20;65.30;;;;;;6294351;28;20090;-81
2022/09/08 05:19:55;;;;;;;2.60;1.25;;;22.30;65.20;;;;;;6255571;28;20041;-81
2022/09/08 05:22:56;;;;;;;4.50;1.60;;;22.30;65.10;;;;;;6287680;28;20056;-82
2022/09/08 05:26:06;;;;;;;1.88;1.10;;;22.30;65.20;;;;;;6269068;28;20041;-79
2022/09/08 05:29:07;;;;;;;;;;;22.30;65.30;;;;;;6286091;28;20044;-79
2022/09/08 05:32:08;;;;;;;4.00;1.50;;;22.30;65.10;;;;;;6257090;28;19971;-80
2022/09/08 05:35:09;;;;;;;5.15;1.60;;;22.40;65.00;;;;;;6248937;28;20037;-81
2022/09/08 05:38:10;;;;;;;9.80;1.58;;;22.40;64.90;;;;;;6267381;28;20481;-80
2022/09/08 05:41:12;;;;;;;2.67;1.63;;;22.40;65.00;;;;;;6284160;28;20337;-80
2022/09/08 05:44:14;;;;;;;3.05;1.75;;;22.40;65.00;;;;;;6274543;28;20119;-80
2022/09/08 05:47:16;;;;;;;4.75;1.80;;;22.50;65.20;;;;;;6278275;28;20135;-80
2022/09/08 05:50:18;;;;;;;4.50;1.38;;;22.50;65.10;;;;;;6250888;28;20045;-81
2022/09/08 05:53:19;;;;;;;9.23;1.92;;;22.60;65.10;;;;;;6259131;28;20103;-81
2022/09/08 05:56:20;;;;;;;3.28;1.70;;;22.60;65.00;;;;;;6231060;28;20042;-81
2022/09/08 05:59:21;;;;;;;1.80;1.45;;;22.70;64.90;;;;;;6253181;28;20048;-81
2022/09/08 06:02:22;;;;;;;4.55;2.17;;;22.70;64.70;;;;;;6285907;28;20045;-83
2022/09/08 06:05:23;;;;;;;4.18;2.45;;;22.80;64.70;;;;;;6248661;28;20041;-80
2022/09/08 06:08:25;;;;;;;4.45;2.28;;;22.80;64.50;;;;;;6256620;28;20069;-82
2022/09/08 06:11:29;;;;;;;3.38;1.63;;;22.90;64.50;;;;;;6248212;28;20044;-81
2022/09/08 06:14:29;;;;;;;6.07;2.15;;;23.00;64.40;;;;;;6245179;28;20103;-82
2022/09/08 06:17:31;;;;;;;3.30;2.05;;;23.00;64.30;;;;;;6258968;28;20045;-80
2022/09/08 06:20:33;;;;;;;6.53;1.88;;;23.00;64.20;;;;;;6251728;28;20116;-80
2022/09/08 06:23:34;;;;;;;4.55;1.73;;;23.00;63.90;;;;;;6253267;28;20037;-80
2022/09/08 06:26:55;;;;;;;3.20;1.42;;;23.00;63.70;;;;;;6259709;28;20047;-80
2022/09/08 06:30:14;;;;;;;8.75;1.58;;;23.00;63.80;;;;;;6250293;28;20033;-81
2022/09/08 06:33:20;;;;;;;3.10;2.05;;;22.90;63.90;;;;;;6258648;28;20041;-81
2022/09/08 06:36:26;;;;;;;4.90;2.17;;;22.90;63.90;;;;;;6266415;28;20045;-81
2022/09/08 06:39:43;;;;;;;3.97;1.85;;;22.80;64.20;;;;;;6292759;28;20037;-80
2022/09/08 06:42:47;;;;;;;4.00;1.98;;;22.80;64.40;;;;;;6273789;28;20062;-80
2022/09/08 06:45:56;;;;;;;4.85;2.05;;;22.80;64.40;;;;;;6271159;28;20116;-80
2022/09/08 06:48:58;;;;;;;2.03;1.70;;;22.70;64.40;;;;;;6259223;28;20044;-80
2022/09/08 06:52:18;;;;;;;2.17;1.20;;;22.80;64.30;;;;;;6246219;28;20040;-81
2022/09/08 06:55:56;;;;;;;7.07;1.77;;;22.80;64.20;;;;;;6260030;28;20029;-81
2022/09/08 06:59:02;;;;;;;5.72;1.80;;;22.80;64.20;;;;;;6224336;28;20402;-81
2022/09/08 07:02:29;;;;;;;3.50;2.05;;;22.80;63.90;;;;;;6259847;28;20044;-81
2022/09/08 07:05:56;;;;;;;4.78;2.05;;;22.80;64.10;;;;;;6267505;28;20055;-81
2022/09/08 07:09:03;;;;;;;7.00;1.83;;;22.90;64.00;;;;;;6269425;28;20154;-81
2022/09/08 07:12:35;;;;;;;4.32;2.20;;;22.90;63.80;;;;;;6232432;28;20515;-81
2022/09/08 07:15:44;;;;;;;4.63;2.25;;;22.90;63.60;;;;;;6257298;28;20043;-81
2022/09/08 07:19:12;;;;;;;3.28;2.30;;;23.00;63.60;;;;;;6280057;28;20029;-81
2022/09/08 07:22:16;;;;;;;4.85;2.25;;;23.00;63.30;;;;;;6257687;28;20079;-81
2022/09/08 07:25:35;;;;;;;3.03;1.65;;;23.20;63.00;;;;;;6266757;28;20462;-81
2022/09/08 07:28:48;;;;;;;9.68;1.60;;;23.30;62.80;;;;;;6260161;28;20123;-81
2022/09/08 07:31:51;;;;;;;10.07;2.90;;;23.30;62.20;;;;;;6270394;28;20117;-81
2022/09/08 07:35:02;;;;;;;6.22;2.45;;;23.30;61.90;;;;;;6280248;28;20061;-80
2022/09/08 07:38:11;;;;;;;3.78;1.90;;;23.30;62.00;;;;;;6265901;28;20041;-80
2022/09/08 07:41:21;;;;;;;2.20;1.73;;;23.30;62.00;;;;;;6269664;28;20041;-81
2022/09/08 07:44:22;;;;;;;1.83;1.50;;;23.40;61.90;;;;;;6257183;28;20052;-80
2022/09/08 07:47:39;;;;;;;2.72;1.73;;;23.50;61.70;;;;;;6254479;28;20692;-80
2022/09/08 07:50:56;;;;;;;4.03;1.63;;;23.50;61.40;;;;;;6256878;28;20171;-80
2022/09/08 07:54:18;;;;;;;9.80;2.42;;;23.60;60.90;;;;;;6239638;28;20370;-80
2022/09/08 07:57:30;;;;;;;4.75;1.90;;;23.60;60.70;;;;;;6261889;28;20041;-80
2022/09/08 08:00:44;;;;;;;7.00;2.00;;;23.60;60.50;;;;;;6256858;28;20139;-82
2022/09/08 08:04:19;;;;;;;6.82;1.88;;;23.60;60.40;;;;;;6262763;28;20037;-81
2022/09/08 08:07:41;;;;;;;7.82;2.05;;;23.60;60.60;;;;;;6261733;28;20381;-81
2022/09/08 08:11:12;;;;;;;2.10;1.70;;;23.70;60.10;;;;;;6261307;28;20465;-81
2022/09/08 08:14:24;;;;;;;7.20;1.85;;;23.80;59.90;;;;;;6285480;28;20049;-82
2022/09/08 08:17:39;;;;;;;2.55;1.70;;;24.00;59.60;;;;;;6268828;28;20037;-82
2022/09/08 08:21:17;;;;;;;5.10;1.70;;;24.10;59.40;;;;;;6275543;28;20041;-80
2022/09/08 08:24:24;;;;;;;10.20;2.33;;;24.30;58.90;;;;;;6274279;28;20433;-81
2022/09/08 08:27:24;;;;;;;5.05;1.92;;;24.40;58.60;;;;;;6274901;28;20044;-81
2022/09/08 08:30:26;;;;;;;3.33;1.42;;;24.50;58.50;;;;;;6267477;28;20037;-81
2022/09/08 08:33:45;;;;;;;1.77;1.40;;;24.50;58.00;;;;;;6261076;28;20045;-82
2022/09/08 08:36:48;;;;;;;11.32;1.80;;;24.70;57.60;;;;;;6252913;28;20052;-80
2022/09/08 08:39:55;;;;;;;2.00;1.30;;;24.90;57.20;;;;;;6257985;28;20044;-81
2022/09/08 08:43:04;;;;;;;5.20;2.20;;;24.90;57.00;;;;;;6257604;28;20034;-81
2022/09/08 08:46:33;;;;;;;2.00;1.45;;;24.90;56.80;;;;;;6271200;28;20461;-81
2022/09/08 08:50:09;;;;;;;2.65;1.45;;;25.10;56.50;;;;;;6265673;28;20060;-81
2022/09/08 08:53:34;;;;;;;9.05;2.17;;;25.30;56.20;;;;;;6263589;28;20032;-81
2022/09/08 08:56:57;;;;;;;5.20;1.67;;;25.50;55.90;;;;;;6255214;28;20112;-81
2022/09/08 09:00:19;;;;;;;5.55;2.95;;;25.70;55.50;;;;;;6281842;28;20063;-82
2022/09/08 09:03:46;;;;;;;1.23;1.02;;;25.80;55.10;;;;;;6257778;28;20044;-82
2022/09/08 09:07:14;;;;;;;4.57;1.48;;;26.00;54.60;;;;;;6232949;28;20446;-83
2022/09/08 09:10:52;;;;;;;5.15;1.20;;;25.90;54.30;;;;;;6273043;28;20025;-82
2022/09/08 09:14:18;;;;;;;3.42;0.90;;;26.00;53.40;;;;;;6274541;28;20029;-81
2022/09/08 09:17:28;;;;;;;3.92;1.98;;;26.00;52.90;;;;;;6284779;28;20036;-81
2022/09/08 09:20:57;;;;;;;3.67;2.17;;;25.90;53.20;;;;;;6303967;28;20050;-80
2022/09/08 09:23:58;;;;;;;;;;;26.00;53.10;;;;;;6267270;28;20095;-81
2022/09/08 09:27:06;;;;;;;5.70;1.42;;;26.10;52.80;;;;;;6254881;28;19917;-82
2022/09/08 09:30:23;;;;;;;3.00;1.45;;;26.20;52.60;;;;;;6253781;28;20848;-83
2022/09/08 09:34:13;;;;;;;6.55;1.25;;;26.30;52.40;;;;;;6279338;28;20094;-81
2022/09/08 09:37:31;;;;;;;3.03;1.27;;;26.40;52.10;;;;;;6265842;28;20053;-81
2022/09/08 09:40:42;;;;;;;2.20;1.27;;;26.50;51.60;;;;;;6258035;28;20033;-80
2022/09/08 09:44:04;;;;;;;1.40;1.17;;;26.50;51.50;;;;;;6301076;28;20109;-82
2022/09/08 09:47:20;;;;;;;3.95;1.63;;;26.50;51.30;;;;;;6267509;28;20028;-83
2022/09/08 09:50:43;;;;;;;1.13;1.00;;;26.60;51.20;;;;;;6248997;28;20117;-81
2022/09/08 09:54:11;;;;;;;2.13;1.25;;;26.60;50.60;;;;;;6249442;28;20056;-81
2022/09/08 09:57:36;;;;;;;2.80;1.30;;;26.60;50.30;;;;;;6264627;28;20049;-82
2022/09/08 10:01:15;;;;;;;6.30;1.20;;;26.70;49.80;;;;;;6243083;28;20150;-82
2022/09/08 10:04:18;;;;;;;2.33;1.30;;;26.70;49.60;;;;;;6259649;28;20378;-82
2022/09/08 10:07:22;;;;;;;2.20;1.10;;;26.70;49.40;;;;;;6250301;28;20033;-81
2022/09/08 10:10:49;;;;;;;4.00;1.60;;;26.70;49.10;;;;;;6255534;28;20045;-81
2022/09/08 10:14:04;;;;;;;3.78;1.35;;;26.70;48.90;;;;;;6254430;28;20045;-82
2022/09/08 10:17:47;;;;;;;6.22;1.23;;;26.80;48.60;;;;;;6270006;28;20057;-82
2022/09/08 10:21:03;;;;;;;3.00;1.17;;;26.90;48.20;;;;;;6260036;28;20049;-82
2022/09/08 10:24:21;;;;;;;1.40;1.00;;;26.90;47.70;;;;;;6272472;28;20458;-82
2022/09/08 10:27:25;;;;;;;1.58;0.90;;;26.90;47.70;;;;;;6255554;28;20044;-81
2022/09/08 10:30:35;;;;;;;4.32;0.90;;;27.00;47.60;;;;;;6265285;28;20125;-82
2022/09/08 10:34:14;;;;;;;1.60;1.20;;;27.00;47.10;;;;;;6255069;28;20040;-82
2022/09/08 10:37:15;;;;;;;6.72;1.25;;;26.90;46.50;;;;;;6248261;28;20502;-82
2022/09/08 10:40:25;;;;;;;1.25;1.10;;;27.00;46.50;;;;;;6256206;28;20041;-83
2022/09/08 10:43:35;;;;;;;3.60;1.15;;;27.20;46.40;;;;;;6261201;28;20044;-82
2022/09/08 10:47:11;;;;;;;1.70;1.00;;;27.60;46.00;;;;;;6280049;28;20766;-81
2022/09/08 10:50:18;;;;;;;2.38;0.90;;;27.90;45.20;;;;;;6247124;28;20415;-81
2022/09/08 10:53:51;;;;;;;1.17;0.90;;;28.30;44.40;;;;;;6259634;28;20104;-82
2022/09/08 10:56:58;;;;;;;1.10;0.88;;;28.40;43.70;;;;;;6250675;28;20037;-82
2022/09/08 11:00:13;;;;;;;3.08;1.02;;;28.60;43.50;;;;;;6262362;28;20033;-81
2022/09/08 11:03:48;;;;;;;2.90;1.00;;;28.90;43.10;;;;;;6295135;28;20029;-81
2022/09/08 11:07:07;;;;;;;0.95;0.80;;;29.20;42.40;;;;;;6253353;28;20034;-82
2022/09/08 11:10:20;;;;;;;1.52;1.02;;;29.50;42.00;;;;;;6256973;28;20049;-82
2022/09/08 11:13:33;;;;;;;3.72;1.35;;;29.70;40.90;;;;;;6269598;28;20059;-82
2022/09/08 11:16:47;;;;;;;3.10;1.08;;;29.90;40.30;;;;;;6254618;28;20065;-81
2022/09/08 11:19:59;;;;;;;1.77;0.90;;;30.00;40.50;;;;;;6256052;28;20135;-82
2022/09/08 11:23:00;;;;;;;3.20;1.38;;;30.20;40.20;;;;;;6270223;28;20123;-83
2022/09/08 11:26:22;;;;;;;4.28;1.00;;;30.30;39.90;;;;;;6245988;28;20120;-82
2022/09/08 11:29:34;;;;;;;2.17;1.02;;;30.40;39.60;;;;;;6243139;28;20029;-82
2022/09/08 11:32:50;;;;;;;1.90;0.80;;;30.50;39.10;;;;;;6247297;28;20092;-81
2022/09/08 11:36:30;;;;;;;4.47;0.90;;;30.80;38.90;;;;;;6261320;28;20469;-81
2022/09/08 11:39:55;;;;;;;2.58;0.85;;;31.00;38.90;;;;;;6268328;28;20041;-82
2022/09/08 11:43:29;;;;;;;0.98;0.80;;;31.40;38.20;;;;;;6283788;28;20044;-81
2022/09/08 11:47:16;;;;;;;3.33;0.93;;;31.70;37.90;;;;;;6275760;28;20085;-83
2022/09/08 11:50:33;;;;;;;2.78;0.98;;;32.20;37.20;;;;;;6260455;28;20126;-81
2022/09/08 11:54:06;;;;;;;1.27;0.90;;;32.60;36.40;;;;;;6251444;28;20090;-82
2022/09/08 11:57:31;;;;;;;4.40;1.30;;;32.90;35.40;;;;;;6266580;28;20037;-83
2022/09/08 12:00:48;;;;;;;4.07;1.25;;;33.20;34.50;;;;;;6250687;28;20663;-82
2022/09/08 12:04:17;;;;;;;2.08;0.70;;;33.50;34.10;;;;;;6270512;28;20132;-83
2022/09/08 12:07:33;;;;;;;;;;;33.70;33.40;;;;;;6266736;28;20033;-81
2022/09/08 12:11:07;;;;;;;1.70;0.93;;;34.20;32.90;;;;;;6275844;28;19925;-81
2022/09/08 12:14:41;;;;;;;0.75;0.65;;;34.80;31.80;;;;;;6265968;28;20494;-81
2022/09/08 12:18:03;;;;;;;4.60;0.95;;;35.40;30.90;;;;;;6252386;28;20041;-82
2022/09/08 12:21:07;;;;;;;5.22;0.77;;;35.90;30.00;;;;;;6260540;28;20657;-82
2022/09/08 12:24:14;;;;;;;13.93;0.90;;;36.30;29.10;;;;;;6273317;28;20101;-82
2022/09/08 12:27:54;;;;;;;2.42;1.05;;;36.80;29.20;;;;;;6277590;28;20051;-82
2022/09/08 12:31:27;;;;;;;1.20;0.70;;;37.30;27.90;;;;;;6248880;28;20040;-82
2022/09/08 12:35:01;;;;;;;4.82;1.05;;;37.90;27.10;;;;;;6258204;28;20040;-82
2022/09/08 12:38:33;;;;;;;3.53;1.00;;;38.50;26.30;;;;;;6259409;28;20128;-81
2022/09/08 12:41:45;;;;;;;4.25;0.70;;;39.10;25.60;;;;;;6258792;28;20107;-82
2022/09/08 12:44:52;;;;;;;3.20;0.95;;;39.50;25.00;;;;;;6246505;28;20463;-82
2022/09/08 12:48:12;;;;;;;10.40;0.57;;;39.80;24.50;;;;;;6262459;28;20029;-82
2022/09/08 12:51:36;;;;;;;1.05;0.90;;;40.00;24.20;;;;;;6250445;28;20030;-82
2022/09/08 12:54:49;;;;;;;1.58;0.88;;;40.40;23.60;;;;;;6259858;28;20045;-82
2022/09/08 12:57:54;;;;;;;2.97;0.90;;;40.90;23.20;;;;;;6261563;28;20045;-84
2022/09/08 13:01:15;;;;;;;7.15;0.60;;;41.50;23.00;;;;;;6252303;28;20045;-83
2022/09/08 13:04:51;;;;;;;4.32;0.63;;;42.10;22.50;;;;;;6264523;28;20041;-83
2022/09/08 13:08:19;;;;;;;0.60;0.60;;;42.00;22.00;;;;;;6266055;28;20077;-82
2022/09/08 13:11:39;;;;;;;3.22;1.02;;;41.20;22.40;;;;;;6289593;28;20726;-82
2022/09/08 13:15:01;;;;;;;2.33;0.80;;;41.40;22.20;;;;;;6259307;28;20049;-82
2022/09/08 13:18:21;;;;;;;0.68;0.50;;;41.60;21.60;;;;;;6248622;28;20045;-82
2022/09/08 13:21:57;;;;;;;1.92;0.60;;;41.70;21.20;;;;;;6262372;28;20032;-82
2022/09/08 13:25:22;;;;;;;1.42;0.70;;;41.90;20.70;;;;;;6265534;28;20464;-83
2022/09/08 13:28:26;;;;;;;3.72;0.52;;;42.20;20.40;;;;;;6274056;28;20028;-82
2022/09/08 13:31:35;;;;;;;2.88;1.63;;;42.40;20.20;;;;;;6260655;28;20037;-81
2022/09/08 13:35:10;;;;;;;3.70;1.05;;;42.80;20.00;;;;;;6264521;28;20139;-83
2022/09/08 13:38:48;;;;;;;2.55;0.70;;;43.20;19.60;;;;;;6196524;28;20046;-82
2022/09/08 13:42:24;;;;;;;3.55;0.45;;;43.40;19.30;;;;;;6219763;28;20069;-82
2022/09/08 13:45:31;;;;;;;2.70;0.80;;;43.50;18.90;;;;;;6190011;28;20129;-84
2022/09/08 13:49:03;;;;;;;1.00;0.40;;;42.40;19.50;;;;;;6192764;28;20467;-82
2022/09/08 13:52:31;;;;;;;1.48;0.30;;;40.80;20.30;;;;;;6206172;28;20045;-82
2022/09/08 13:55:50;;;;;;;2.75;0.45;;;39.30;20.80;;;;;;6205556;28;20459;-83
2022/09/08 13:58:57;;;;;;;0.93;0.40;;;38.00;21.30;;;;;;6219602;28;20052;-83
2022/09/08 14:01:59;;;;;;;1.98;0.55;;;36.90;21.80;;;;;;6182438;28;20042;-84
2022/09/08 14:05:25;;;;;;;0.63;0.60;;;36.00;22.00;;;;;;6178039;28;20121;-83
2022/09/08 14:08:38;;;;;;;0.80;0.60;;;35.30;22.50;;;;;;6159824;28;20058;-84
2022/09/08 14:12:09;;;;;;;0.93;0.55;;;34.70;23.10;;;;;;6179954;28;20034;-83
2022/09/08 14:15:10;;;;;;;4.15;0.40;;;34.00;23.70;;;;;;6192602;28;20451;-82
2022/09/08 14:18:14;;;;;;;0.63;0.50;;;33.50;24.30;;;;;;6210498;28;20045;-83
2022/09/08 14:21:43;;;;;;;2.67;0.55;;;33.10;24.70;;;;;;6184147;28;20130;-83
2022/09/08 14:24:51;;;;;;;1.35;0.50;;;32.70;24.90;;;;;;6222595;28;20052;-83
2022/09/08 14:28:00;;;;;;;1.23;0.60;;;32.30;25.20;;;;;;6233378;28;20030;-83
2022/09/08 14:31:15;;;;;;;2.03;0.52;;;32.10;25.60;;;;;;6215867;28;20108;-83
2022/09/08 14:34:29;;;;;;;1.65;0.50;;;31.80;25.90;;;;;;6197683;28;20038;-83
2022/09/08 14:37:32;;;;;;;1.95;0.60;;;31.60;26.10;;;;;;6238735;28;20429;-83
2022/09/08 14:40:56;;;;;;;1.65;0.50;;;31.50;26.30;;;;;;6260866;28;20052;-82
2022/09/08 14:44:18;;;;;;;0.68;0.30;;;31.30;26.30;;;;;;6251213;28;20074;-83
2022/09/08 14:47:44;;;;;;;0.68;0.50;;;31.20;26.70;;;;;;6242032;28;20348;-83
2022/09/08 14:50:45;;;;;;;0.90;0.40;;;31.00;26.90;;;;;;6239816;28;20033;-82
2022/09/08 14:54:09;;;;;;;1.83;0.50;;;30.90;27.10;;;;;;6270908;28;20444;-83
2022/09/08 14:57:19;;;;;;;1.05;0.40;;;30.80;27.20;;;;;;6234043;28;20034;-84
2022/09/08 15:00:39;;;;;;;2.55;0.50;;;30.70;27.20;;;;;;6278711;28;20101;-81
2022/09/08 15:03:51;;;;;;;0.40;0.40;;;30.60;27.40;;;;;;6272362;28;20029;-83
2022/09/08 15:06:57;;;;;;;2.40;0.50;;;30.60;27.70;;;;;;6267658;28;20037;-83
2022/09/08 15:10:01;;;;;;;1.23;0.60;;;30.60;27.80;;;;;;6254350;28;20052;-83
2022/09/08 15:13:15;;;;;;;2.30;0.60;;;30.50;27.90;;;;;;6270858;28;20131;-83
2022/09/08 15:16:25;;;;;;;3.40;0.60;;;30.30;27.90;;;;;;6251668;28;20113;-83
2022/09/08 15:19:31;;;;;;;1.42;0.38;;;30.40;27.90;;;;;;6276066;28;20034;-82
2022/09/08 15:22:35;;;;;;;1.67;0.80;;;30.50;27.80;;;;;;6301282;28;20044;-82
2022/09/08 15:26:02;;;;;;;3.10;0.50;;;30.50;27.70;;;;;;6272389;28;20110;-82
2022/09/08 15:29:12;;;;;;;1.33;0.50;;;30.50;27.80;;;;;;6277381;28;20188;-82
2022/09/08 15:32:41;;;;;;;2.33;0.57;;;30.50;27.80;;;;;;6272832;28;20032;-81
2022/09/08 15:36:01;;;;;;;3.70;0.73;;;30.60;27.80;;;;;;6285423;28;20075;-83
2022/09/08 15:39:29;;;;;;;5.38;0.80;;;30.60;27.70;;;;;;6288075;28;20212;-82
2022/09/08 15:42:58;;;;;;;1.38;0.38;;;30.70;27.80;;;;;;6267532;28;20551;-83
2022/09/08 15:46:28;;;;;;;2.47;0.50;;;30.70;27.90;;;;;;6264275;28;20033;-83
2022/09/08 15:49:54;;;;;;;2.15;0.50;;;30.60;28.00;;;;;;6279808;28;20060;-82
2022/09/08 15:53:11;;;;;;;1.98;0.30;;;30.60;28.20;;;;;;6310370;28;20045;-82
2022/09/08 15:56:30;;;;;;;2.45;0.45;;;30.60;28.30;;;;;;6294400;28;20120;-83
2022/09/08 15:59:44;;;;;;;3.97;0.43;;;30.60;28.30;;;;;;6273639;28;20116;-82
2022/09/08 16:03:04;;;;;;;1.55;0.70;;;30.60;28.30;;;;;;6279191;28;20047;-83
2022/09/08 16:06:49;;;;;;;1.73;1.20;;;30.60;28.50;;;;;;6279396;28;20034;-82
2022/09/08 16:10:06;;;;;;;4.90;0.60;;;30.60;28.50;;;;;;6227245;28;20041;-82
2022/09/08 16:13:24;;;;;;;3.00;1.10;;;30.60;28.60;;;;;;6239444;28;20044;-82
2022/09/08 16:16:40;;;;;;;;;;;30.60;28.70;;;;;;6235877;28;20041;-82
2022/09/08 16:19:43;;;;;;;0.45;0.40;;;30.50;28.80;;;;;;6238462;28;20341;-81
2022/09/08 16:22:50;;;;;;;1.17;0.50;;;30.30;29.00;;;;;;6233218;28;20143;-82
2022/09/08 16:26:06;;;;;;;0.40;0.40;;;30.30;29.40;;;;;;6216659;28;20038;-83
2022/09/08 16:29:10;;;;;;;6.50;0.63;;;30.20;29.70;;;;;;6223388;28;20033;-82
2022/09/08 16:32:14;;;;;;;1.35;0.50;;;30.20;30.00;;;;;;6224532;28;20688;-84
2022/09/08 16:35:25;;;;;;;3.17;0.52;;;30.10;30.20;;;;;;6236654;28;20048;-82
2022/09/08 16:38:35;;;;;;;3.13;0.70;;;30.00;30.30;;;;;;6214403;28;20147;-82
2022/09/08 16:42:10;;;;;;;0.93;0.57;;;29.90;30.50;;;;;;6229069;28;20041;-83
2022/09/08 16:45:12;;;;;;;0.63;0.47;;;29.90;30.60;;;;;;6238297;28;20076;-81